Time;durP1;ratioP1;P1;durP2;ratioP2;P2;SDS_P1;SDS_P2;PMS_P1;PMS_P2;Temp;Humidity;BMP_temperature;BMP_pressure;BME280_temperature;BME280_humidity;BME280_pressure;Samples;Min_cycle;Max_cycle;Signal;HPM_P1;HPM_P2
2023/09/02 00:00:39;;;;;;;19.13;3.85;;;15.70;99.90;;;;;;5023236;28;20030;-59
2023/09/02 00:03:05;;;;;;;5.03;2.53;;;15.70;99.90;;;;;;5021790;28;20030;-60
2023/09/02 00:05:30;;;;;;;3.05;2.35;;;15.70;99.90;;;;;;5024877;28;20055;-57
2023/09/02 00:07:56;;;;;;;5.38;2.53;;;15.70;99.90;;;;;;5023078;28;20037;-61
2023/09/02 00:10:21;;;;;;;5.00;2.70;;;15.80;99.90;;;;;;5021000;28;20592;-58
2023/09/02 00:12:47;;;;;;;2.50;2.22;;;15.80;99.90;;;;;;5022889;28;20029;-58
2023/09/02 00:15:13;;;;;;;6.93;2.70;;;15.70;99.90;;;;;;5021076;28;20398;-60
2023/09/02 00:17:38;;;;;;;8.65;2.60;;;15.70;99.90;;;;;;5025358;28;20021;-60
2023/09/02 00:20:05;;;;;;;23.40;3.38;;;15.70;99.90;;;;;;5026243;28;20048;-59
2023/09/02 00:22:32;;;;;;;18.40;3.30;;;15.70;99.90;;;;;;5029677;28;20021;-58
2023/09/02 00:24:58;;;;;;;3.33;2.55;;;15.70;99.90;;;;;;5027730;28;20230;-59
2023/09/02 00:27:24;;;;;;;4.28;2.17;;;15.70;99.90;;;;;;5026251;28;20026;-58
2023/09/02 00:29:49;;;;;;;5.55;3.15;;;15.70;99.90;;;;;;5025139;28;20045;-59
2023/09/02 00:32:15;;;;;;;12.07;3.58;;;15.70;99.90;;;;;;5027883;28;20033;-60
2023/09/02 00:34:41;;;;;;;6.70;2.65;;;15.70;99.90;;;;;;5018021;28;20036;-58
2023/09/02 00:37:06;;;;;;;2.88;2.58;;;15.70;99.90;;;;;;5020525;28;20160;-57
2023/09/02 00:39:32;;;;;;;2.72;2.40;;;15.70;99.90;;;;;;5023473;28;20106;-58
2023/09/02 00:42:00;;;;;;;10.68;2.25;;;15.70;99.90;;;;;;5023448;28;20025;-58
2023/09/02 00:44:25;;;;;;;3.05;2.30;;;15.70;99.90;;;;;;5025413;28;20505;-60
2023/09/02 00:46:51;;;;;;;9.15;2.92;;;15.70;99.90;;;;;;5031938;28;20033;-59
2023/09/02 00:49:18;;;;;;;6.93;2.70;;;15.70;99.90;;;;;;5028469;28;20032;-60
2023/09/02 00:51:43;;;;;;;3.67;2.67;;;15.80;99.90;;;;;;5032649;28;20033;-60
2023/09/02 00:54:09;;;;;;;2.92;2.53;;;15.80;99.90;;;;;;5029771;28;20481;-59
2023/09/02 00:56:36;;;;;;;9.95;3.20;;;15.80;99.90;;;;;;5024782;28;20037;-59
2023/09/02 00:59:04;;;;;;;4.05;2.58;;;15.80;99.90;;;;;;5028449;28;20037;-57
2023/09/02 01:01:35;;;;;;;8.27;3.20;;;15.80;99.90;;;;;;5026103;28;20049;-57
2023/09/02 01:04:04;;;;;;;5.53;2.78;;;15.80;99.90;;;;;;5031716;28;20038;-58
2023/09/02 01:06:30;;;;;;;5.07;2.42;;;15.90;99.90;;;;;;5022680;28;20030;-61
2023/09/02 01:08:56;;;;;;;24.17;4.00;;;15.80;99.90;;;;;;5027940;28;20116;-58
2023/09/02 01:11:22;;;;;;;4.82;2.85;;;15.90;99.90;;;;;;5027702;28;20116;-58
2023/09/02 01:13:47;;;;;;;10.13;2.55;;;15.90;99.90;;;;;;5026623;28;20022;-57
2023/09/02 01:16:13;;;;;;;7.05;2.80;;;15.90;99.90;;;;;;5030268;28;20021;-58
2023/09/02 01:18:39;;;;;;;8.38;2.70;;;15.90;99.90;;;;;;5025264;28;20032;-57
2023/09/02 01:21:55;;;;;;;13.57;3.15;;;15.90;99.90;;;;;;5028756;28;20120;-59
2023/09/02 01:24:35;;;;;;;30.33;4.93;;;15.90;99.90;;;;;;5018519;28;20044;-61
2023/09/02 01:27:26;;;;;;;13.60;3.05;;;15.90;99.90;;;;;;5024878;28;20125;-59
2023/09/02 01:30:14;;;;;;;4.03;3.03;;;15.90;99.90;;;;;;5005788;28;20042;-59
2023/09/02 01:32:42;;;;;;;5.53;2.45;;;15.90;99.90;;;;;;5006015;28;20046;-60
2023/09/02 01:35:09;;;;;;;8.75;2.67;;;15.90;99.90;;;;;;5008770;28;20045;-58
2023/09/02 01:37:43;;;;;;;7.47;2.50;;;15.90;99.90;;;;;;5009650;28;20383;-58
2023/09/02 01:40:21;;;;;;;2.80;2.60;;;15.90;99.90;;;;;;5011308;28;20551;-60
2023/09/02 01:42:51;;;;;;;6.15;2.42;;;16.00;99.90;;;;;;5024816;28;20047;-61
2023/09/02 01:45:23;;;;;;;4.07;2.17;;;15.90;99.90;;;;;;5026948;28;20466;-60
2023/09/02 01:47:50;;;;;;;6.38;2.40;;;15.90;99.90;;;;;;5030306;28;20091;-60
2023/09/02 01:50:19;;;;;;;3.90;2.05;;;15.80;99.90;;;;;;5043300;28;20086;-61
2023/09/02 01:52:45;;;;;;;6.07;2.45;;;15.80;99.90;;;;;;5031106;28;20025;-60
2023/09/02 01:55:11;;;;;;;4.35;2.58;;;15.80;99.90;;;;;;5033715;28;20041;-60
2023/09/02 01:57:38;;;;;;;4.68;2.55;;;15.80;99.90;;;;;;5030468;28;20022;-60
2023/09/02 02:00:05;;;;;;;2.92;2.60;;;15.70;99.90;;;;;;5033799;28;20067;-61
2023/09/02 02:02:30;;;;;;;6.53;2.80;;;15.80;99.90;;;;;;5031193;28;20044;-60
2023/09/02 02:05:02;;;;;;;6.80;2.67;;;15.80;99.90;;;;;;5024443;28;20045;-61
2023/09/02 02:07:34;;;;;;;3.30;2.70;;;15.80;99.90;;;;;;5028266;28;20121;-60
2023/09/02 02:10:03;;;;;;;4.03;2.88;;;15.80;99.90;;;;;;5027312;28;20068;-60
2023/09/02 02:12:30;;;;;;;4.85;2.50;;;15.90;99.90;;;;;;5028782;28;20529;-60
2023/09/02 02:14:55;;;;;;;21.50;2.63;;;15.90;99.90;;;;;;5025937;28;20026;-59
2023/09/02 02:17:21;;;;;;;4.53;2.33;;;15.90;99.90;;;;;;5030100;28;20100;-59
2023/09/02 02:19:47;;;;;;;4.72;2.22;;;15.90;99.90;;;;;;5024151;28;20044;-60
2023/09/02 02:22:13;;;;;;;2.40;1.80;;;15.90;99.90;;;;;;5022972;28;20029;-60
2023/09/02 02:24:38;;;;;;;3.17;2.08;;;15.90;99.90;;;;;;5036799;28;20490;-59
2023/09/02 02:27:04;;;;;;;8.88;2.10;;;15.80;99.90;;;;;;5031479;28;20086;-61
2023/09/02 02:29:30;;;;;;;2.78;2.17;;;15.80;99.90;;;;;;5032672;28;20079;-60
2023/09/02 02:31:55;;;;;;;4.50;2.20;;;15.80;99.90;;;;;;5021818;28;20040;-62
2023/09/02 02:34:24;;;;;;;6.30;2.10;;;15.70;99.90;;;;;;5020938;28;20030;-58
2023/09/02 02:36:49;;;;;;;6.55;1.90;;;15.70;99.90;;;;;;5025312;28;20140;-60
2023/09/02 02:39:16;;;;;;;3.85;1.77;;;15.80;99.90;;;;;;5027840;28;20137;-60
2023/09/02 02:41:41;;;;;;;3.03;1.90;;;15.80;99.90;;;;;;5009006;28;20039;-59
2023/09/02 02:44:07;;;;;;;9.63;2.17;;;15.80;99.90;;;;;;5023273;28;20109;-60
2023/09/02 02:46:33;;;;;;;1.90;1.67;;;15.80;99.90;;;;;;5025618;28;20022;-60
2023/09/02 02:48:58;;;;;;;4.78;2.00;;;15.80;99.90;;;;;;5025723;28;20066;-59
2023/09/02 02:51:24;;;;;;;4.10;1.90;;;15.80;99.90;;;;;;5026940;28;20018;-60
2023/09/02 02:53:51;;;;;;;1.95;1.67;;;15.80;99.90;;;;;;5026602;28;20121;-60
2023/09/02 02:56:16;;;;;;;12.18;2.17;;;15.80;99.90;;;;;;5026219;28;20029;-60
2023/09/02 02:58:42;;;;;;;4.55;1.83;;;15.90;99.90;;;;;;5024747;28;20467;-59
2023/09/02 03:01:11;;;;;;;2.10;1.88;;;15.90;99.90;;;;;;5009648;28;20122;-59
2023/09/02 03:03:37;;;;;;;2.05;1.67;;;15.90;99.90;;;;;;5022201;28;20088;-57
2023/09/02 03:06:04;;;;;;;4.00;1.73;;;15.90;99.90;;;;;;5020357;28;20048;-58
2023/09/02 03:08:30;;;;;;;2.30;1.38;;;15.90;99.90;;;;;;5022084;28;20525;-60
2023/09/02 03:11:00;;;;;;;3.85;1.88;;;15.90;99.90;;;;;;5022830;28;20528;-59
2023/09/02 03:13:27;;;;;;;3.55;1.75;;;15.90;99.90;;;;;;5027317;28;20124;-59
2023/09/02 03:15:55;;;;;;;2.30;1.70;;;15.90;99.90;;;;;;5030341;28;20040;-58
2023/09/02 03:18:22;;;;;;;14.88;1.80;;;15.80;99.90;;;;;;5026391;28;20045;-58
2023/09/02 03:20:47;;;;;;;2.75;1.65;;;15.80;99.90;;;;;;5028725;28;20025;-58
2023/09/02 03:23:14;;;;;;;5.70;2.05;;;15.80;99.90;;;;;;5032695;28;20520;-60
2023/09/02 03:25:40;;;;;;;7.00;2.85;;;15.80;99.90;;;;;;5027608;28;20034;-61
2023/09/02 03:28:06;;;;;;;21.52;3.40;;;15.80;99.90;;;;;;5029883;28;20036;-58
2023/09/02 03:30:32;;;;;;;3.03;2.17;;;15.80;99.90;;;;;;5029485;28;20038;-59
2023/09/02 03:32:58;;;;;;;6.25;2.30;;;15.80;99.90;;;;;;5026483;28;20088;-60
2023/09/02 03:35:23;;;;;;;5.57;2.10;;;15.80;99.90;;;;;;5026061;28;20034;-62
2023/09/02 03:37:49;;;;;;;7.47;2.00;;;15.80;99.90;;;;;;5027339;28;20036;-58
2023/09/02 03:40:18;;;;;;;4.53;1.92;;;15.70;99.90;;;;;;5028735;28;20026;-60
2023/09/02 03:42:44;;;;;;;8.80;2.35;;;15.70;99.90;;;;;;5030309;28;20025;-57
2023/09/02 03:45:10;;;;;;;5.43;1.83;;;15.70;99.90;;;;;;5029159;28;20033;-60
2023/09/02 03:47:36;;;;;;;5.50;2.35;;;15.70;99.90;;;;;;5030652;28;20032;-60
2023/09/02 03:50:03;;;;;;;2.85;1.70;;;15.60;99.90;;;;;;5028011;28;20026;-59
2023/09/02 03:52:29;;;;;;;983.63;122.03;;;15.60;99.90;;;;;;5032811;28;20025;-59
2023/09/02 03:54:54;;;;;;;2.08;1.60;;;15.50;99.90;;;;;;5027978;28;20569;-59
2023/09/02 03:57:20;;;;;;;4.95;1.90;;;15.50;99.90;;;;;;5030846;28;20029;-58
2023/09/02 03:59:45;;;;;;;1999.90;999.90;;;15.40;99.90;;;;;;5030063;28;20166;-59
2023/09/02 04:02:11;;;;;;;852.33;76.53;;;15.40;99.90;;;;;;5015837;28;20116;-58
2023/09/02 04:04:37;;;;;;;1999.90;999.90;;;15.40;99.90;;;;;;5029900;28;20029;-59
2023/09/02 04:07:02;;;;;;;358.55;45.85;;;15.40;99.90;;;;;;5026637;28;20124;-59
2023/09/02 04:09:28;;;;;;;374.30;176.57;;;15.30;99.90;;;;;;5026781;28;20030;-60
2023/09/02 04:11:54;;;;;;;3.95;1.70;;;15.30;99.90;;;;;;5025312;28;20025;-58
2023/09/02 04:14:20;;;;;;;6.47;1.98;;;15.20;99.90;;;;;;5028717;28;20585;-57
2023/09/02 04:16:45;;;;;;;6.38;2.45;;;15.30;99.90;;;;;;5021375;28;20109;-56
2023/09/02 04:19:11;;;;;;;2.10;1.90;;;15.30;99.90;;;;;;5023212;28;20134;-59
2023/09/02 04:21:37;;;;;;;2.25;1.88;;;15.30;99.90;;;;;;5025645;28;20031;-58
2023/09/02 04:24:02;;;;;;;6.50;1.95;;;15.30;99.90;;;;;;5024861;28;20021;-57
2023/09/02 04:26:29;;;;;;;5.03;2.25;;;15.40;99.90;;;;;;5022848;28;20502;-58
2023/09/02 04:28:55;;;;;;;15.48;3.03;;;15.30;99.90;;;;;;5028222;28;20079;-60
2023/09/02 04:31:22;;;;;;;5.38;2.58;;;15.40;99.90;;;;;;5027146;28;20037;-59
2023/09/02 04:33:47;;;;;;;4.35;2.40;;;15.40;99.90;;;;;;5028350;28;20029;-59
2023/09/02 04:36:13;;;;;;;16.15;3.08;;;15.40;99.90;;;;;;5009219;28;20025;-58
2023/09/02 04:38:39;;;;;;;35.58;4.50;;;15.40;99.90;;;;;;5006182;28;20025;-58
2023/09/02 04:41:06;;;;;;;22.65;3.95;;;15.40;99.90;;;;;;5026402;28;20038;-59
2023/09/02 04:43:32;;;;;;;15.75;3.22;;;15.40;99.90;;;;;;5032146;28;20099;-58
2023/09/02 04:46:02;;;;;;;4.88;3.65;;;15.40;99.90;;;;;;5030212;28;20506;-59
2023/09/02 04:48:28;;;;;;;28.55;4.55;;;15.40;99.90;;;;;;5022490;28;20036;-61
2023/09/02 04:50:54;;;;;;;37.45;4.43;;;15.40;99.90;;;;;;5022623;28;20017;-60
2023/09/02 04:53:20;;;;;;;11.50;3.83;;;15.40;99.90;;;;;;5026439;28;20034;-60
2023/09/02 04:55:46;;;;;;;113.60;6.28;;;15.40;99.90;;;;;;5031525;28;20034;-58
2023/09/02 04:58:12;;;;;;;93.68;4.53;;;15.40;99.90;;;;;;5033285;28;20034;-59
2023/09/02 05:00:38;;;;;;;50.63;3.28;;;15.40;99.90;;;;;;5038454;28;20160;-57
2023/09/02 05:03:04;;;;;;;42.20;3.17;;;15.30;99.90;;;;;;5024928;28;20030;-58
2023/09/02 05:05:31;;;;;;;87.93;3.72;;;15.30;99.90;;;;;;5024848;28;20494;-60
2023/09/02 05:07:58;;;;;;;86.90;3.33;;;15.40;99.90;;;;;;5028205;28;20029;-59
2023/09/02 05:10:24;;;;;;;107.47;3.33;;;15.40;99.90;;;;;;5029976;28;20034;-59
2023/09/02 05:12:50;;;;;;;39.20;2.40;;;15.40;99.90;;;;;;5031324;28;20820;-58
2023/09/02 05:15:15;;;;;;;104.60;4.50;;;15.30;99.90;;;;;;5027175;28;20067;-58
2023/09/02 05:17:42;;;;;;;37.28;2.92;;;15.30;99.90;;;;;;5029070;28;20083;-59
2023/09/02 05:20:08;;;;;;;28.58;2.47;;;15.30;99.90;;;;;;5030479;28;20034;-58
2023/09/02 05:22:34;;;;;;;59.72;4.00;;;15.40;99.90;;;;;;5032265;28;20021;-59
2023/09/02 05:25:01;;;;;;;56.17;4.53;;;15.30;99.90;;;;;;5035911;28;20117;-58
2023/09/02 05:27:27;;;;;;;22.48;2.20;;;15.40;99.90;;;;;;5029290;28;20033;-60
2023/09/02 05:29:52;;;;;;;51.70;3.22;;;15.50;99.90;;;;;;5020968;28;20029;-59
2023/09/02 05:32:18;;;;;;;55.53;3.30;;;15.50;99.90;;;;;;5025269;28;20115;-59
2023/09/02 05:34:44;;;;;;;14.50;1.58;;;15.60;99.90;;;;;;5022644;28;20075;-60
2023/09/02 05:37:10;;;;;;;33.63;2.00;;;15.60;99.90;;;;;;5023265;28;20038;-59
2023/09/02 05:39:35;;;;;;;12.32;2.10;;;15.60;99.90;;;;;;5020681;28;20034;-59
2023/09/02 05:42:02;;;;;;;32.50;2.70;;;15.70;99.90;;;;;;5026336;28;20036;-58
2023/09/02 05:44:28;;;;;;;43.20;4.35;;;15.80;99.90;;;;;;5030279;28;20040;-57
2023/09/02 05:46:53;;;;;;;68.47;4.10;;;15.80;99.90;;;;;;5026150;28;20025;-57
2023/09/02 05:49:19;;;;;;;16.20;3.47;;;15.90;99.90;;;;;;5022997;28;20120;-58
2023/09/02 05:51:45;;;;;;;19.75;5.68;;;16.00;99.90;;;;;;5031230;28;20063;-59
2023/09/02 05:54:10;;;;;;;20.17;3.75;;;16.00;99.90;;;;;;5029350;28;20045;-56
2023/09/02 05:56:37;;;;;;;13.88;4.38;;;16.10;99.90;;;;;;5029912;28;20048;-58
2023/09/02 05:59:02;;;;;;;7.03;3.80;;;16.00;99.90;;;;;;5029026;28;20068;-60
2023/09/02 06:01:29;;;;;;;6.72;4.80;;;16.10;99.90;;;;;;5023226;28;20054;-59
2023/09/02 06:03:55;;;;;;;5.97;4.70;;;16.10;99.90;;;;;;5023292;28;20033;-59
2023/09/02 06:06:21;;;;;;;5.65;4.88;;;16.20;99.90;;;;;;5026494;28;20088;-56
2023/09/02 06:08:47;;;;;;;12.95;5.20;;;16.30;99.90;;;;;;5028540;28;20133;-58
2023/09/02 06:11:12;;;;;;;6.00;5.60;;;16.30;99.90;;;;;;5032292;28;20109;-57
2023/09/02 06:13:38;;;;;;;13.38;8.93;;;16.30;99.90;;;;;;5028162;28;20101;-59
2023/09/02 06:16:04;;;;;;;6.40;5.20;;;16.40;99.90;;;;;;5032961;28;20053;-60
2023/09/02 06:18:32;;;;;;;5.32;4.93;;;16.40;99.90;;;;;;5032671;28;20032;-57
2023/09/02 06:20:57;;;;;;;7.13;5.38;;;16.40;99.90;;;;;;5030963;28;20112;-59
2023/09/02 06:23:25;;;;;;;10.90;7.10;;;16.50;99.90;;;;;;5028562;28;20044;-59
2023/09/02 06:26:00;;;;;;;19.05;10.30;;;16.50;99.90;;;;;;5029963;28;20033;-57
2023/09/02 06:28:27;;;;;;;6.97;6.15;;;16.60;99.90;;;;;;5028022;28;20045;-59
2023/09/02 06:30:53;;;;;;;8.10;7.40;;;16.60;99.90;;;;;;5029720;28;20030;-60
2023/09/02 06:33:21;;;;;;;8.02;5.22;;;16.70;99.90;;;;;;5029247;28;20033;-59
2023/09/02 06:35:48;;;;;;;4.35;3.95;;;16.80;99.90;;;;;;5027861;28;20541;-59
2023/09/02 06:38:13;;;;;;;4.43;4.03;;;16.80;99.90;;;;;;5026533;28;20034;-60
2023/09/02 06:40:39;;;;;;;4.28;3.90;;;16.80;99.90;;;;;;5028846;28;20042;-59
2023/09/02 06:43:05;;;;;;;4.47;4.07;;;16.90;99.90;;;;;;5026344;28;20026;-60
2023/09/02 06:45:30;;;;;;;3.78;3.47;;;16.90;99.90;;;;;;5028105;28;20105;-60
2023/09/02 06:47:56;;;;;;;5.60;3.70;;;17.00;99.90;;;;;;5031474;28;20099;-61
2023/09/02 06:50:22;;;;;;;3.10;2.63;;;17.10;99.90;;;;;;5030834;28;20569;-60
2023/09/02 06:52:48;;;;;;;5.75;3.92;;;17.10;99.90;;;;;;5028301;28;20465;-59
2023/09/02 06:55:15;;;;;;;3.10;2.80;;;17.10;99.90;;;;;;5023971;28;20025;-59
2023/09/02 06:57:44;;;;;;;3.10;2.83;;;17.20;99.90;;;;;;5029654;28;20041;-59
2023/09/02 07:00:13;;;;;;;9.27;3.03;;;17.20;99.90;;;;;;5028210;28;20083;-60
2023/09/02 07:02:39;;;;;;;2.78;2.42;;;17.30;99.90;;;;;;5027940;28;20041;-61
2023/09/02 07:05:05;;;;;;;4.32;2.80;;;17.30;99.90;;;;;;5025157;28;20033;-60
2023/09/02 07:07:31;;;;;;;4.65;2.38;;;17.30;99.90;;;;;;5022458;28;20026;-61
2023/09/02 07:09:58;;;;;;;2.72;2.53;;;17.30;99.90;;;;;;5027158;28;20029;-61
2023/09/02 07:12:24;;;;;;;3.70;2.70;;;17.30;99.90;;;;;;5027756;28;20033;-58
2023/09/02 07:14:50;;;;;;;3.38;2.17;;;17.40;99.90;;;;;;5027030;28;20018;-58
2023/09/02 07:17:15;;;;;;;4.18;2.63;;;17.40;99.90;;;;;;5028580;28;20041;-57
2023/09/02 07:19:41;;;;;;;2.58;1.95;;;17.50;99.90;;;;;;5029542;28;20069;-61
2023/09/02 07:22:06;;;;;;;2.22;2.03;;;17.50;99.90;;;;;;5023729;28;20156;-57
2023/09/02 07:24:32;;;;;;;3.42;2.30;;;17.60;99.90;;;;;;5031155;28;20041;-59
2023/09/02 07:26:57;;;;;;;2.25;2.03;;;17.60;99.90;;;;;;5030993;28;20107;-59
2023/09/02 07:29:23;;;;;;;1.95;1.77;;;17.60;99.90;;;;;;5030969;28;20042;-59
2023/09/02 07:31:49;;;;;;;3.35;1.88;;;17.70;99.90;;;;;;5025017;28;20029;-59
2023/09/02 07:34:14;;;;;;;3.13;2.55;;;17.70;99.90;;;;;;5022256;28;20048;-60
2023/09/02 07:36:42;;;;;;;2.33;1.60;;;17.70;99.90;;;;;;5028182;28;20475;-61
2023/09/02 07:39:08;;;;;;;2.42;2.00;;;17.70;99.90;;;;;;5027533;28;20037;-61
2023/09/02 07:41:33;;;;;;;2.33;1.73;;;17.70;99.90;;;;;;5026738;28;20029;-61
2023/09/02 07:43:59;;;;;;;1.88;1.77;;;17.80;99.90;;;;;;5027124;28;20090;-59
2023/09/02 07:46:25;;;;;;;2.42;1.70;;;17.90;99.90;;;;;;5025056;28;20084;-60
2023/09/02 07:48:51;;;;;;;2.20;1.80;;;17.90;99.90;;;;;;5029613;28;20037;-61
2023/09/02 07:51:17;;;;;;;1.85;1.48;;;18.00;99.90;;;;;;5031180;28;20029;-59
2023/09/02 07:53:44;;;;;;;1.38;1.27;;;18.00;99.90;;;;;;5031580;28;20432;-60
2023/09/02 07:56:09;;;;;;;1.20;1.10;;;18.10;99.90;;;;;;5030112;28;20422;-60
2023/09/02 07:58:35;;;;;;;1.40;1.27;;;18.20;99.90;;;;;;5026905;28;20041;-57
2023/09/02 08:01:02;;;;;;;1.52;1.20;;;18.30;99.90;;;;;;5027156;28;20115;-58
2023/09/02 08:03:27;;;;;;;1.30;1.20;;;18.40;99.90;;;;;;5031459;28;20030;-57
2023/09/02 08:05:53;;;;;;;0.95;0.90;;;18.60;99.90;;;;;;5024407;28;20025;-59
2023/09/02 08:08:19;;;;;;;0.80;0.80;;;18.60;99.90;;;;;;5024456;28;20033;-58
2023/09/02 08:10:44;;;;;;;1.50;1.00;;;18.60;99.90;;;;;;5021336;28;20017;-61
2023/09/02 08:13:10;;;;;;;0.85;0.85;;;18.50;99.90;;;;;;5027912;28;20033;-61
2023/09/02 08:15:37;;;;;;;1.10;1.00;;;18.50;99.90;;;;;;5026538;28;20038;-63
2023/09/02 08:18:03;;;;;;;1.58;1.30;;;18.50;99.90;;;;;;5025907;28;20021;-64
2023/09/02 08:20:30;;;;;;;1.33;1.10;;;18.50;99.90;;;;;;5027707;28;20101;-61
2023/09/02 08:22:55;;;;;;;0.98;0.88;;;18.40;99.90;;;;;;5029346;28;20038;-61
2023/09/02 08:25:21;;;;;;;1.30;1.05;;;18.30;99.90;;;;;;5023990;28;20449;-60
2023/09/02 08:27:47;;;;;;;0.50;0.43;;;18.40;99.90;;;;;;5026436;28;20380;-61
2023/09/02 08:30:14;;;;;;;1.00;1.00;;;18.40;99.90;;;;;;5021030;28;20040;-60
2023/09/02 08:32:40;;;;;;;4.47;0.60;;;18.40;99.90;;;;;;5020335;28;20014;-59
2023/09/02 08:35:06;;;;;;;0.70;0.70;;;18.40;99.90;;;;;;5025288;28;20025;-61
2023/09/02 08:37:32;;;;;;;0.60;0.60;;;18.40;99.90;;;;;;5025324;28;20104;-61
2023/09/02 08:39:58;;;;;;;0.90;0.90;;;18.60;99.90;;;;;;5026439;28;20026;-61
2023/09/02 08:42:25;;;;;;;1.02;0.60;;;18.80;99.90;;;;;;5022543;28;20029;-61
2023/09/02 08:44:53;;;;;;;0.50;0.50;;;19.10;99.90;;;;;;5020003;28;20025;-61
2023/09/02 08:47:20;;;;;;;1.13;0.80;;;19.30;99.90;;;;;;5024096;28;20036;-61
2023/09/02 08:49:45;;;;;;;0.70;0.70;;;19.30;99.90;;;;;;5024969;28;20022;-62
2023/09/02 08:52:13;;;;;;;0.50;0.50;;;19.10;99.90;;;;;;5025642;28;20502;-61
2023/09/02 08:54:40;;;;;;;0.65;0.65;;;19.20;99.90;;;;;;5024876;28;20040;-61
2023/09/02 08:57:07;;;;;;;0.70;0.68;;;19.30;99.90;;;;;;5026060;28;20100;-60
2023/09/02 08:59:33;;;;;;;0.50;0.50;;;19.30;99.90;;;;;;5026109;28;20355;-61
2023/09/02 09:02:00;;;;;;;1.00;0.80;;;19.40;99.90;;;;;;5025469;28;20044;-61
2023/09/02 09:04:29;;;;;;;0.60;0.60;;;19.50;99.90;;;;;;5028147;28;20037;-62
2023/09/02 09:06:55;;;;;;;0.88;0.80;;;19.60;99.90;;;;;;5026452;28;20026;-60
2023/09/02 09:09:22;;;;;;;0.90;0.82;;;19.70;99.90;;;;;;5023524;28;20040;-59
2023/09/02 09:11:50;;;;;;;0.63;0.63;;;19.80;99.90;;;;;;5022459;28;20104;-60
2023/09/02 09:14:16;;;;;;;0.50;0.50;;;20.00;99.90;;;;;;5024799;28;20056;-61
2023/09/02 09:16:43;;;;;;;1.88;0.57;;;20.10;99.90;;;;;;5026404;28;20061;-60
2023/09/02 09:19:09;;;;;;;0.40;0.40;;;20.20;99.90;;;;;;5030376;28;20041;-61
2023/09/02 09:21:34;;;;;;;1.40;0.88;;;20.10;99.90;;;;;;5018094;28;20025;-61
2023/09/02 09:24:02;;;;;;;0.40;0.40;;;20.20;99.90;;;;;;5027536;28;20044;-61
2023/09/02 09:26:30;;;;;;;0.50;0.50;;;20.20;99.90;;;;;;5024562;28;20053;-61
2023/09/02 09:28:59;;;;;;;0.45;0.45;;;20.20;99.90;;;;;;5029112;28;20103;-61
2023/09/02 09:31:26;;;;;;;0.40;0.40;;;20.30;99.90;;;;;;5040477;28;20029;-61
2023/09/02 09:33:58;;;;;;;0.38;0.38;;;20.50;99.90;;;;;;5024952;28;20508;-59
2023/09/02 09:36:25;;;;;;;0.50;0.50;;;20.40;99.90;;;;;;5022612;28;20115;-62
2023/09/02 09:38:56;;;;;;;1.88;0.50;;;20.40;99.90;;;;;;5025908;28;20017;-61
2023/09/02 09:41:25;;;;;;;0.60;0.50;;;20.30;99.90;;;;;;5024584;28;20026;-60
2023/09/02 09:44:06;;;;;;;0.52;0.50;;;20.40;99.90;;;;;;5022758;28;20681;-60
2023/09/02 09:46:46;;;;;;;1.02;0.45;;;20.60;99.90;;;;;;5022417;28;20033;-60
2023/09/02 09:49:28;;;;;;;0.47;0.47;;;20.80;99.90;;;;;;5026377;28;20498;-60
2023/09/02 09:51:59;;;;;;;1.65;0.50;;;21.00;99.90;;;;;;5028734;28;20036;-58
2023/09/02 09:54:45;;;;;;;0.45;0.45;;;21.10;99.90;;;;;;5028194;28;20025;-59
2023/09/02 09:57:16;;;;;;;0.30;0.30;;;21.10;99.90;;;;;;5027397;28;20492;-60
2023/09/02 09:59:52;;;;;;;24.50;1.40;;;21.40;99.90;;;;;;5031478;28;20041;-60
2023/09/02 10:02:19;;;;;;;0.88;0.40;;;21.60;99.90;;;;;;5027756;28;20773;-61
2023/09/02 10:04:55;;;;;;;0.40;0.40;;;21.70;99.90;;;;;;5027046;28;20030;-59
2023/09/02 10:07:25;;;;;;;0.30;0.30;;;21.90;99.90;;;;;;5028866;28;20060;-59
2023/09/02 10:09:52;;;;;;;0.30;0.30;;;21.80;99.90;;;;;;5026414;28;20040;-59
2023/09/02 10:12:18;;;;;;;0.45;0.40;;;21.60;99.90;;;;;;5028817;28;20059;-59
2023/09/02 10:14:46;;;;;;;0.80;0.60;;;21.50;99.90;;;;;;5028958;28;20718;-61
2023/09/02 10:17:12;;;;;;;0.30;0.30;;;21.40;99.90;;;;;;5027826;28;20436;-59
2023/09/02 10:19:39;;;;;;;0.40;0.40;;;21.20;99.90;;;;;;5034782;28;20044;-59
2023/09/02 10:22:05;;;;;;;0.73;0.57;;;20.90;99.90;;;;;;5031578;28;20053;-60
2023/09/02 10:24:56;;;;;;;0.70;0.70;;;20.60;99.90;;;;;;5032095;28;20065;-58
2023/09/02 10:27:26;;;;;;;0.40;0.40;;;20.60;99.90;;;;;;5029050;28;20386;-60
2023/09/02 10:29:57;;;;;;;4.18;1.13;;;20.50;99.90;;;;;;5027469;28;20532;-60
2023/09/02 10:32:49;;;;;;;;;;;20.50;99.90;;;;;;5032635;28;20029;-60
2023/09/02 10:35:21;;;;;;;0.30;0.30;;;20.60;99.90;;;;;;5031994;28;19913;-59
2023/09/02 10:37:54;;;;;;;0.40;0.40;;;20.70;99.90;;;;;;5027869;28;20033;-61
2023/09/02 10:40:27;;;;;;;0.43;0.43;;;20.60;99.90;;;;;;5022732;28;20477;-61
2023/09/02 10:42:54;;;;;;;0.40;0.40;;;20.60;99.90;;;;;;5028537;28;20025;-59
2023/09/02 10:45:20;;;;;;;0.30;0.30;;;20.60;99.90;;;;;;5025165;28;20140;-60
2023/09/02 10:47:47;;;;;;;0.40;0.40;;;20.70;99.90;;;;;;5027726;28;20766;-61
2023/09/02 10:50:16;;;;;;;0.40;0.40;;;20.70;99.90;;;;;;5030190;28;20029;-60
2023/09/02 10:52:42;;;;;;;0.30;0.30;;;20.70;99.90;;;;;;5027529;28;20033;-58
2023/09/02 10:55:09;;;;;;;0.40;0.40;;;20.80;99.90;;;;;;5030243;28;20249;-60
2023/09/02 10:57:45;;;;;;;0.45;0.40;;;20.90;99.90;;;;;;5030524;28;20029;-59
2023/09/02 11:00:12;;;;;;;0.50;0.47;;;21.00;99.90;;;;;;5026777;28;20432;-61
2023/09/02 11:02:42;;;;;;;2.15;0.40;;;21.00;99.90;;;;;;5021593;28;20095;-61
2023/09/02 11:05:08;;;;;;;0.40;0.40;;;21.00;99.90;;;;;;5016092;28;20034;-61
2023/09/02 11:07:34;;;;;;;0.40;0.40;;;21.00;99.90;;;;;;5023803;28;20037;-60
2023/09/02 11:10:01;;;;;;;0.45;0.45;;;21.10;99.90;;;;;;5020822;28;20457;-59
2023/09/02 11:12:28;;;;;;;2.25;1.40;;;21.20;99.90;;;;;;5021009;28;20036;-60
2023/09/02 11:15:08;;;;;;;0.70;0.50;;;21.30;99.90;;;;;;5018060;28;20021;-61
2023/09/02 11:17:41;;;;;;;0.43;0.43;;;21.40;99.90;;;;;;5024551;28;20030;-59
2023/09/02 11:20:11;;;;;;;1.05;0.57;;;21.60;99.90;;;;;;5026903;28;20449;-61
2023/09/02 11:22:53;;;;;;;0.40;0.40;;;21.80;99.90;;;;;;5023563;28;20497;-61
2023/09/02 11:25:30;;;;;;;0.65;0.60;;;22.00;99.90;;;;;;5026739;28;20111;-61
2023/09/02 11:27:57;;;;;;;0.60;0.60;;;22.20;99.90;;;;;;5025864;28;20521;-58
2023/09/02 11:30:24;;;;;;;0.40;0.40;;;22.30;99.90;;;;;;5029408;28;20029;-60
2023/09/02 11:32:50;;;;;;;0.98;0.70;;;22.50;99.90;;;;;;5026388;28;20628;-61
2023/09/02 11:35:26;;;;;;;1.15;1.05;;;22.70;99.90;;;;;;5026653;28;20029;-60
2023/09/02 11:37:52;;;;;;;0.50;0.40;;;22.90;99.90;;;;;;5023765;28;20121;-59
2023/09/02 11:40:19;;;;;;;0.50;0.40;;;23.10;99.90;;;;;;5027037;28;20087;-61
2023/09/02 11:42:59;;;;;;;0.63;0.60;;;23.20;99.90;;;;;;5026349;28;20030;-60
2023/09/02 11:45:27;;;;;;;0.68;0.60;;;23.30;99.90;;;;;;5023658;28;20037;-61
2023/09/02 11:47:53;;;;;;;1.30;0.90;;;23.60;99.90;;;;;;5024887;28;20072;-58
2023/09/02 11:50:21;;;;;;;0.60;0.60;;;23.60;99.90;;;;;;5024556;28;20582;-60
2023/09/02 11:52:48;;;;;;;0.40;0.40;;;23.50;99.90;;;;;;5025631;28;20088;-60
2023/09/02 11:55:16;;;;;;;0.40;0.40;;;23.60;99.90;;;;;;5026431;28;20025;-61
2023/09/02 11:57:42;;;;;;;0.30;0.30;;;23.70;99.90;;;;;;5028421;28;20104;-62
2023/09/02 12:00:17;;;;;;;1.10;0.40;;;23.60;99.90;;;;;;5025938;28;20032;-60
2023/09/02 12:02:44;;;;;;;0.75;0.75;;;23.50;99.90;;;;;;5027697;28;20038;-58
2023/09/02 12:05:10;;;;;;;0.57;0.57;;;23.40;99.90;;;;;;5026856;28;20093;-60
2023/09/02 12:07:38;;;;;;;0.40;0.40;;;23.40;99.90;;;;;;5025229;28;20537;-60
2023/09/02 12:10:06;;;;;;;1.40;0.68;;;23.50;99.90;;;;;;5026111;28;20394;-62
2023/09/02 12:12:32;;;;;;;0.43;0.40;;;23.50;99.90;;;;;;5025642;28;20106;-60
2023/09/02 12:14:58;;;;;;;0.30;0.30;;;23.60;99.90;;;;;;5027314;28;20028;-62
2023/09/02 12:17:23;;;;;;;0.52;0.52;;;23.70;99.90;;;;;;5025996;28;20037;-60
2023/09/02 12:19:49;;;;;;;0.75;0.35;;;23.90;99.90;;;;;;5024356;28;20034;-59
2023/09/02 12:22:15;;;;;;;0.63;0.45;;;23.90;99.90;;;;;;5025389;28;20029;-61
2023/09/02 12:24:41;;;;;;;0.65;0.57;;;23.90;99.90;;;;;;5024472;28;20409;-60
2023/09/02 12:27:09;;;;;;;0.40;0.40;;;24.00;99.90;;;;;;5023946;28;20029;-62
2023/09/02 12:29:34;;;;;;;0.30;0.30;;;24.10;99.90;;;;;;5024883;28;20037;-60
2023/09/02 12:32:01;;;;;;;0.40;0.40;;;24.30;99.90;;;;;;5023315;28;20422;-60
2023/09/02 12:34:34;;;;;;;0.28;0.20;;;24.20;99.90;;;;;;5024402;28;20037;-61
2023/09/02 12:37:20;;;;;;;0.32;0.32;;;24.20;99.90;;;;;;5021693;28;20052;-60
2023/09/02 12:39:47;;;;;;;0.30;0.30;;;24.10;99.90;;;;;;5018653;28;20038;-59
2023/09/02 12:42:16;;;;;;;0.30;0.30;;;23.80;99.90;;;;;;5022105;28;20690;-58
2023/09/02 12:44:58;;;;;;;0.30;0.30;;;23.60;99.90;;;;;;5027658;28;20030;-61
2023/09/02 12:47:25;;;;;;;0.40;0.40;;;23.40;99.90;;;;;;5026332;28;20029;-61